Terminal Aerodrome Forecast
Issued by NWS

Home | Current Version | Previous Version | Text Only | Print | Product List | Glossary On
Versions: 1 2 3 4 5 6 7 8 9 10 11 12
000
FTUS43 KTOP 251131
TAFFOE
TAF
KFOE 251131Z 2512/2612 15006KT P6SM SCT150
     FM251600 18010KT P6SM BKN150
     FM252000 21009KT P6SM VCTS SCT050CB BKN120
     FM260200 02006KT P6SM SHRA VCTS OVC050CB
     FM260600 36006KT P6SM SHRA BKN035=

USA.gov is the U.S. government's official web portal to all federal, state and local government web resources and services.